createdAt,value
2023-09-06T00:01:07.370Z,4.20
2023-09-06T00:03:37.693Z,3.95
2023-09-06T00:06:05.906Z,3.88
2023-09-06T00:08:36.451Z,4.25
2023-09-06T00:11:08.053Z,4.32
2023-09-06T00:13:37.024Z,4.30
2023-09-06T00:16:05.610Z,3.95
2023-09-06T00:18:33.517Z,3.90
2023-09-06T00:21:01.268Z,4.15
2023-09-06T00:23:28.824Z,3.90
2023-09-06T00:25:56.573Z,3.72
2023-09-06T00:28:27.173Z,4.35
2023-09-06T00:30:58.856Z,4.10
2023-09-06T00:33:36.032Z,4.20
2023-09-06T00:36:08.153Z,4.03
2023-09-06T00:38:35.729Z,4.07
2023-09-06T00:41:04.198Z,4.00
2023-09-06T00:43:31.893Z,4.10
2023-09-06T00:46:00.645Z,3.80
2023-09-06T00:48:30.920Z,4.25
2023-09-06T00:50:58.953Z,4.32
2023-09-06T00:53:27.033Z,4.10
2023-09-06T00:55:55.026Z,3.58
2023-09-06T00:58:23.303Z,4.13
2023-09-06T01:00:51.777Z,3.83
2023-09-06T01:03:20.184Z,4.13
2023-09-06T01:05:55.472Z,3.80
2023-09-06T01:08:52.264Z,4.03
2023-09-06T01:11:24.552Z,3.90
2023-09-06T01:13:58.109Z,3.95
2023-09-06T01:16:35.209Z,4.00
2023-09-06T01:19:03.073Z,3.97
2023-09-06T01:21:37.694Z,3.90
2023-09-06T01:24:07.365Z,3.97
2023-09-06T01:26:35.970Z,4.00
2023-09-06T01:29:04.392Z,3.63
2023-09-06T01:31:32.072Z,3.90
2023-09-06T01:33:59.736Z,3.83
2023-09-06T01:36:27.620Z,4.03
2023-09-06T01:38:55.222Z,3.72
2023-09-06T01:41:22.840Z,4.20
2023-09-06T01:43:55.901Z,4.10
2023-09-06T01:46:25.201Z,4.30
2023-09-06T01:48:52.985Z,4.25
2023-09-06T01:51:20.668Z,4.00
2023-09-06T01:53:48.260Z,4.57
2023-09-06T01:56:15.905Z,5.07
2023-09-06T01:58:44.428Z,4.88
2023-09-06T02:01:12.250Z,4.38
2023-09-06T02:03:40.033Z,5.03
2023-09-06T02:06:08.166Z,4.57
2023-09-06T02:08:36.667Z,4.80
2023-09-06T02:11:04.485Z,5.28
2023-09-06T02:13:32.099Z,5.53
2023-09-06T02:16:02.799Z,4.97
2023-09-06T02:18:30.901Z,4.10
2023-09-06T02:20:59.882Z,4.70
2023-09-06T02:23:27.486Z,4.28
2023-09-06T02:25:55.015Z,4.10
2023-09-06T02:28:22.668Z,4.10
2023-09-06T02:30:50.173Z,3.63
2023-09-06T02:33:18.074Z,4.18
2023-09-06T02:35:46.696Z,3.70
2023-09-06T02:38:16.388Z,3.67
2023-09-06T02:40:44.161Z,3.75
2023-09-06T02:43:12.847Z,3.65
2023-09-06T02:45:40.867Z,3.65
2023-09-06T02:48:13.943Z,3.65
2023-09-06T02:50:41.837Z,3.53
2023-09-06T02:53:22.256Z,3.78
2023-09-06T02:55:54.779Z,3.53
2023-09-06T02:58:26.676Z,3.30
2023-09-06T03:01:07.676Z,3.33
2023-09-06T03:03:35.833Z,3.28
2023-09-06T03:06:06.247Z,3.60
2023-09-06T03:08:38.086Z,3.45
2023-09-06T03:11:08.767Z,3.80
2023-09-06T03:13:37.992Z,3.58
2023-09-06T03:16:06.281Z,3.60
2023-09-06T03:18:34.438Z,3.80
2023-09-06T03:21:06.490Z,3.40
2023-09-06T03:23:37.126Z,3.70
2023-09-06T03:26:10.748Z,3.65
2023-09-06T03:28:42.869Z,3.55
2023-09-06T03:31:20.255Z,3.35
2023-09-06T03:33:47.887Z,3.33
2023-09-06T03:36:16.155Z,3.50
2023-09-06T03:38:44.253Z,3.60
2023-09-06T03:41:11.805Z,3.58
2023-09-06T03:43:39.805Z,3.47
2023-09-06T03:46:11.070Z,3.55
2023-09-06T03:48:39.074Z,3.80
2023-09-06T03:51:07.072Z,3.65
2023-09-06T03:53:39.026Z,3.88
2023-09-06T03:56:09.670Z,4.10
2023-09-06T03:58:42.847Z,3.83
2023-09-06T04:01:12.290Z,3.33
2023-09-06T04:03:41.983Z,3.40
2023-09-06T04:06:12.658Z,3.83
2023-09-06T04:08:41.688Z,3.63
2023-09-06T04:11:12.653Z,3.85
2023-09-06T04:13:44.309Z,3.77
2023-09-06T04:16:13.139Z,3.78
2023-09-06T04:18:43.658Z,3.78
2023-09-06T04:21:11.758Z,4.00
2023-09-06T04:23:42.692Z,4.25
2023-09-06T04:26:14.005Z,3.90
2023-09-06T04:28:42.145Z,3.78
2023-09-06T04:31:13.365Z,3.55
2023-09-06T04:33:44.021Z,3.92
2023-09-06T04:36:16.383Z,3.60
2023-09-06T04:38:45.091Z,3.70
2023-09-06T04:41:15.804Z,3.58
2023-09-06T04:43:52.606Z,3.95
2023-09-06T04:46:21.030Z,3.65
2023-09-06T04:48:51.428Z,3.70
2023-09-06T04:51:20.008Z,3.70
2023-09-06T04:53:47.688Z,3.60
2023-09-06T04:56:17.911Z,3.00
2023-09-06T04:58:50.514Z,3.30
2023-09-06T05:01:18.149Z,3.38
2023-09-06T05:03:47.779Z,3.17
2023-09-06T05:06:15.638Z,3.13
2023-09-06T05:08:45.024Z,3.35
2023-09-06T05:11:19.452Z,3.13
2023-09-06T05:13:50.443Z,3.08
2023-09-06T05:16:19.201Z,3.40
2023-09-06T05:18:49.935Z,3.60
2023-09-06T05:21:20.396Z,3.00
2023-09-06T05:23:48.146Z,3.10
2023-09-06T09:02:02.667Z,3.13
2023-09-06T09:04:30.934Z,3.22
2023-09-06T09:06:59.435Z,3.05
2023-09-06T09:09:27.117Z,3.40
2023-09-06T09:11:56.368Z,2.85
2023-09-06T09:14:26.000Z,2.90
2023-09-06T09:16:58.176Z,2.72
2023-09-06T09:19:27.230Z,2.95
2023-09-06T09:21:58.058Z,2.63
2023-09-06T09:24:28.365Z,2.95
2023-09-06T09:27:00.015Z,2.80
2023-09-06T09:29:29.864Z,3.13
2023-09-06T09:32:05.604Z,3.03
2023-09-06T09:34:33.364Z,3.28
2023-09-06T09:37:03.050Z,2.83
2023-09-06T09:39:30.631Z,2.85
2023-09-06T09:42:00.213Z,2.75
2023-09-06T09:44:28.034Z,2.85
2023-09-06T09:46:58.533Z,2.67
2023-09-06T09:49:27.869Z,3.17
2023-09-06T09:51:55.385Z,3.10
2023-09-06T09:54:24.936Z,2.95
2023-09-06T09:57:07.821Z,3.00
2023-09-06T09:59:37.643Z,3.00
2023-09-06T10:02:06.650Z,3.35
2023-09-06T10:04:38.330Z,3.20
2023-09-06T10:07:08.320Z,2.63
2023-09-06T10:09:39.955Z,3.00
2023-09-06T10:12:10.430Z,3.00
2023-09-06T10:14:41.072Z,3.00
2023-09-06T10:17:13.845Z,2.70
2023-09-06T10:19:53.886Z,2.85
2023-09-06T10:22:22.671Z,2.83
2023-09-06T10:24:53.951Z,2.47
2023-09-06T10:27:33.233Z,2.67
2023-09-06T10:30:05.017Z,2.90
2023-09-06T10:32:44.893Z,2.60
2023-09-06T10:35:31.486Z,2.90
2023-09-06T10:38:03.807Z,2.63
2023-09-06T10:40:50.568Z,2.47
2023-09-06T10:43:24.900Z,2.40
2023-09-06T10:46:11.208Z,2.85
2023-09-06T10:48:39.002Z,2.80
2023-09-06T10:51:14.351Z,2.53
2023-09-06T10:53:49.213Z,2.95
2023-09-06T10:56:28.636Z,2.30
2023-09-06T10:58:58.629Z,2.47
2023-09-06T11:01:26.437Z,2.13
2023-09-06T11:03:55.165Z,2.28
2023-09-06T11:06:25.671Z,2.70
2023-09-06T11:08:54.636Z,2.35
2023-09-06T11:11:22.376Z,2.28
2023-09-06T11:13:49.871Z,2.40
2023-09-06T11:16:17.556Z,2.25
2023-09-06T11:18:49.812Z,2.60
2023-09-06T11:21:24.538Z,2.92
2023-09-06T11:23:55.110Z,2.47
2023-09-06T11:26:22.881Z,2.45
2023-09-06T11:29:05.202Z,2.38
2023-09-06T11:31:34.924Z,2.72
2023-09-06T11:34:05.816Z,2.75
2023-09-06T11:36:36.845Z,2.80
2023-09-06T11:39:20.545Z,2.50
2023-09-06T11:44:19.740Z,2.72
2023-09-06T11:46:50.170Z,2.75
2023-09-06T11:49:22.741Z,2.80
2023-09-06T11:51:53.790Z,3.07
2023-09-06T11:54:25.779Z,2.33
2023-09-06T11:59:23.683Z,2.80
2023-09-06T12:02:00.157Z,2.90
2023-09-06T12:04:29.963Z,2.75
2023-09-06T12:06:59.495Z,2.92
2023-09-06T12:09:28.053Z,2.75
2023-09-06T12:11:55.825Z,2.85
2023-09-06T12:14:24.254Z,2.72
2023-09-06T12:16:51.870Z,2.67
2023-09-06T12:19:19.626Z,2.60
2023-09-06T12:21:47.132Z,2.90
2023-09-06T12:24:14.795Z,2.75
2023-09-06T12:26:42.422Z,2.60
2023-09-06T12:29:10.075Z,3.00
2023-09-06T12:31:39.004Z,3.15
2023-09-06T12:34:07.754Z,3.00
2023-09-06T12:36:35.306Z,2.85
2023-09-06T12:39:07.680Z,2.83
2023-09-06T12:41:35.526Z,3.05
2023-09-06T12:44:05.062Z,2.90
2023-09-06T12:46:32.861Z,3.00
2023-09-06T12:49:00.522Z,2.92
2023-09-06T12:51:28.310Z,3.10
2023-09-06T12:53:56.003Z,3.10
2023-09-06T12:56:23.732Z,3.10
2023-09-06T12:58:51.215Z,3.40
2023-09-06T13:01:18.991Z,3.53
2023-09-06T13:03:47.072Z,3.25
2023-09-06T13:06:14.902Z,3.50
2023-09-06T13:08:43.593Z,3.55
2023-09-06T13:11:14.334Z,3.78
2023-09-06T13:13:42.977Z,3.08
2023-09-06T13:16:10.790Z,3.17
2023-09-06T13:18:40.006Z,3.17
2023-09-06T13:21:07.735Z,3.20
2023-09-06T13:23:35.484Z,3.25
2023-09-06T13:26:03.168Z,3.40
2023-09-06T13:28:31.087Z,3.10
2023-09-06T13:30:59.143Z,3.40
2023-09-06T13:33:29.270Z,3.33
2023-09-06T13:35:58.072Z,2.92
2023-09-06T13:38:25.619Z,2.95
2023-09-06T13:40:53.256Z,3.90
2023-09-06T13:43:20.913Z,2.78
2023-09-06T13:45:48.817Z,3.15
2023-09-06T13:48:16.764Z,2.92
2023-09-06T13:50:44.616Z,3.38
2023-09-06T13:53:12.608Z,3.42
2023-09-06T13:55:40.257Z,3.13
2023-09-06T13:58:10.254Z,3.05
2023-09-06T14:00:37.972Z,3.33
2023-09-06T14:03:06.171Z,3.45
2023-09-06T14:05:34.578Z,3.65
2023-09-06T14:08:03.133Z,3.22
2023-09-06T14:10:30.856Z,3.35
2023-09-06T14:12:58.373Z,3.28
2023-09-06T14:15:26.544Z,3.20
2023-09-06T14:17:54.064Z,3.40
2023-09-06T14:20:21.732Z,3.03
2023-09-06T14:22:49.361Z,3.20
2023-09-06T14:25:18.134Z,3.65
2023-09-06T14:27:45.713Z,3.42
2023-09-06T14:30:13.490Z,3.58
2023-09-06T14:32:41.257Z,3.50
2023-09-06T14:35:08.940Z,3.47
2023-09-06T14:37:36.523Z,3.28
2023-09-06T14:40:05.355Z,3.45
2023-09-06T14:42:33.857Z,2.70
2023-09-06T14:45:02.084Z,3.23
2023-09-06T14:47:29.790Z,3.03
2023-09-06T14:49:58.312Z,3.70
2023-09-06T14:52:25.961Z,3.08
2023-09-06T14:54:53.565Z,3.35
2023-09-06T14:57:21.162Z,3.20
2023-09-06T14:59:48.709Z,3.10
2023-09-06T15:02:16.371Z,2.80
2023-09-06T15:04:44.233Z,2.80
2023-09-06T15:07:11.806Z,3.10
2023-09-06T15:09:42.096Z,3.45
2023-09-06T15:12:10.025Z,3.35
2023-09-06T15:14:37.601Z,3.40
2023-09-06T15:17:05.392Z,3.10
2023-09-06T15:19:34.376Z,2.83
2023-09-06T15:22:02.082Z,3.28
2023-09-06T15:24:29.829Z,3.15
2023-09-06T15:26:58.367Z,3.10
2023-09-06T15:29:26.045Z,3.00
2023-09-06T15:31:54.416Z,3.25
2023-09-06T15:34:22.016Z,3.20
2023-09-06T15:36:49.519Z,3.40
2023-09-06T15:39:17.049Z,3.10
2023-09-06T15:41:45.504Z,3.20
2023-09-06T15:44:13.455Z,3.30
2023-09-06T15:46:41.139Z,3.13
2023-09-06T15:49:08.768Z,3.65
2023-09-06T15:51:36.440Z,3.88
2023-09-06T15:54:05.330Z,3.35
2023-09-06T15:56:32.819Z,3.33
2023-09-06T15:59:00.470Z,3.88
2023-09-06T16:01:30.344Z,3.35
2023-09-06T16:03:59.752Z,3.13
2023-09-06T16:06:27.281Z,3.35
2023-09-06T16:08:55.036Z,2.75
2023-09-06T16:11:22.897Z,3.33
2023-09-06T16:13:50.514Z,3.42
2023-09-06T16:16:18.097Z,3.53
2023-09-06T16:18:46.395Z,3.20
2023-09-06T16:21:14.883Z,3.63
2023-09-06T16:23:42.417Z,3.90
2023-09-06T16:26:10.823Z,3.78
2023-09-06T16:28:38.710Z,3.42
2023-09-06T16:31:06.637Z,3.88
2023-09-06T16:33:36.697Z,3.63
2023-09-06T16:36:07.648Z,3.80
2023-09-06T16:38:36.050Z,3.33
2023-09-06T16:41:04.079Z,3.63
2023-09-06T16:43:31.655Z,3.25
2023-09-06T16:45:59.344Z,3.25
2023-09-06T16:48:27.073Z,3.50
2023-09-06T16:50:54.709Z,3.42
2023-09-06T16:53:22.203Z,3.58
2023-09-06T16:55:49.841Z,3.33
2023-09-06T16:58:17.874Z,3.50
2023-09-06T17:00:45.396Z,3.63
2023-09-06T17:03:13.018Z,3.42
2023-09-06T17:05:40.791Z,3.40
2023-09-06T17:08:08.374Z,3.63
2023-09-06T17:10:35.999Z,3.30
2023-09-06T17:13:03.819Z,3.30
2023-09-06T17:15:32.676Z,3.80
2023-09-06T17:18:00.321Z,3.30
2023-09-06T17:20:28.231Z,3.50
2023-09-06T17:22:59.342Z,3.20
2023-09-06T17:25:27.180Z,3.55
2023-09-06T17:27:54.884Z,2.95
2023-09-06T17:30:23.787Z,3.53
2023-09-06T17:33:12.967Z,3.40
2023-09-06T17:35:46.293Z,3.38
2023-09-06T17:38:17.885Z,3.50
2023-09-06T17:40:56.084Z,3.50
2023-09-06T17:43:24.394Z,3.35
2023-09-06T17:45:52.753Z,3.60
2023-09-06T17:48:22.490Z,3.60
2023-09-06T17:50:54.401Z,3.70
2023-09-06T17:53:26.750Z,3.33
2023-09-06T17:56:03.771Z,3.70
2023-09-06T17:58:31.601Z,3.45
2023-09-06T18:01:00.258Z,3.53
2023-09-06T18:03:28.102Z,3.63
2023-09-06T18:06:00.065Z,3.58
2023-09-06T18:08:28.292Z,3.50
2023-09-06T18:10:56.538Z,3.35
2023-09-06T18:13:24.113Z,3.30
2023-09-06T18:15:54.066Z,3.55
2023-09-06T18:18:21.805Z,3.50
2023-09-06T18:20:49.441Z,3.75
2023-09-06T18:23:20.300Z,3.83
2023-09-06T18:25:47.985Z,3.90
2023-09-06T18:28:16.106Z,3.40
2023-09-06T18:30:46.328Z,3.42
2023-09-06T18:33:15.872Z,3.60
2023-09-06T18:35:46.247Z,3.22
2023-09-06T18:38:18.924Z,3.50
2023-09-06T18:40:47.859Z,3.70
2023-09-06T18:43:18.554Z,3.88
2023-09-06T18:45:47.176Z,3.88
2023-09-06T18:48:16.583Z,3.58
2023-09-06T18:50:46.666Z,3.65
2023-09-06T18:53:14.991Z,3.78
2023-09-06T18:55:45.976Z,4.13
2023-09-06T18:58:13.905Z,3.85
2023-09-06T19:00:42.719Z,3.25
2023-09-06T19:03:14.638Z,4.00
2023-09-06T19:05:43.455Z,4.32
2023-09-06T19:08:16.610Z,3.90
2023-09-06T19:10:45.050Z,3.80
2023-09-06T19:13:15.938Z,3.83
2023-09-06T19:15:48.491Z,3.65
2023-09-06T19:18:17.675Z,3.80
2023-09-06T19:20:45.251Z,3.90
2023-09-06T19:23:18.248Z,4.05
2023-09-06T19:25:53.378Z,4.43
2023-09-06T19:28:25.585Z,4.55
2023-09-06T19:30:58.396Z,4.05
2023-09-06T19:35:56.387Z,3.95
2023-09-06T19:38:24.239Z,3.95
2023-09-06T19:40:55.267Z,3.88
2023-09-06T19:43:24.867Z,3.28
2023-09-06T19:45:57.245Z,3.70
2023-09-06T19:48:25.681Z,4.05
2023-09-06T19:50:53.361Z,3.80
2023-09-06T19:53:21.031Z,3.30
2023-09-06T19:55:49.685Z,3.58
2023-09-06T19:58:17.509Z,4.68
2023-09-06T20:00:45.222Z,4.30
2023-09-06T20:03:13.077Z,4.20
2023-09-06T20:05:41.019Z,3.70
2023-09-06T20:08:09.507Z,4.15
2023-09-06T20:10:52.133Z,4.22
2023-09-06T20:13:21.764Z,3.95
2023-09-06T20:15:49.359Z,4.28
2023-09-06T20:18:16.933Z,3.92
2023-09-06T20:20:44.936Z,4.03
2023-09-06T20:23:12.555Z,4.18
2023-09-06T20:25:40.040Z,4.18
2023-09-06T20:28:07.751Z,3.95
2023-09-06T20:30:42.140Z,4.38
2023-09-06T20:33:10.776Z,3.60
2023-09-06T20:35:41.427Z,4.20
2023-09-06T20:38:09.169Z,4.00
2023-09-06T20:40:36.871Z,3.53
2023-09-06T20:43:04.588Z,4.35
2023-09-06T20:45:33.519Z,3.70
2023-09-06T20:48:01.262Z,4.00
2023-09-06T20:50:28.978Z,3.92
2023-09-06T20:52:56.504Z,3.95
2023-09-06T20:55:24.137Z,4.15
2023-09-06T20:57:51.631Z,3.83
2023-09-06T21:00:19.284Z,3.78
2023-09-06T21:02:46.966Z,4.50
2023-09-06T21:05:14.766Z,4.30
2023-09-06T21:07:42.398Z,4.45
2023-09-06T21:10:10.863Z,3.88
2023-09-06T21:12:38.437Z,4.43
2023-09-06T21:15:06.614Z,3.80
2023-09-06T21:17:34.937Z,3.80
2023-09-06T21:20:04.390Z,4.10
2023-09-06T21:22:32.005Z,3.78
2023-09-06T21:24:59.607Z,3.97
2023-09-06T21:27:27.130Z,4.15
2023-09-06T21:29:54.703Z,3.85
2023-09-06T21:32:22.433Z,4.03
2023-09-06T21:34:50.855Z,3.90
2023-09-06T21:37:18.404Z,3.70
2023-09-06T21:39:45.978Z,4.55
2023-09-06T21:42:13.577Z,4.10
2023-09-06T21:44:41.147Z,3.90
2023-09-06T21:47:08.799Z,4.15
2023-09-06T21:49:36.362Z,4.07
2023-09-06T21:52:04.112Z,4.25
2023-09-06T21:54:33.055Z,4.13
2023-09-06T21:57:00.688Z,4.30
2023-09-06T21:59:28.229Z,3.53
2023-09-06T22:01:55.827Z,3.47
2023-09-06T22:04:42.534Z,3.80
2023-09-06T22:07:29.054Z,3.88
2023-09-06T22:10:15.185Z,3.95
2023-09-06T22:13:04.948Z,3.83
2023-09-06T22:15:32.527Z,3.92
2023-09-06T22:18:00.060Z,3.88
2023-09-06T22:20:31.477Z,4.57
2023-09-06T22:22:59.115Z,4.50
2023-09-06T22:25:26.858Z,3.50
2023-09-06T22:27:54.632Z,4.40
2023-09-06T22:30:22.302Z,4.28
2023-09-06T22:32:49.898Z,4.20
2023-09-06T22:35:17.588Z,4.63
2023-09-06T22:37:45.074Z,4.32
2023-09-06T22:40:12.681Z,4.50
2023-09-06T22:42:40.438Z,4.50
2023-09-06T22:45:09.500Z,3.90
2023-09-06T22:47:37.234Z,4.85
2023-09-06T22:50:05.203Z,4.55
2023-09-06T22:52:32.846Z,4.28
2023-09-06T22:55:00.749Z,4.40
2023-09-06T22:57:28.336Z,4.30
2023-09-06T22:59:56.383Z,4.15
2023-09-06T23:02:24.050Z,4.25
2023-09-06T23:04:52.273Z,3.85
2023-09-06T23:07:19.894Z,3.78
2023-09-06T23:09:48.837Z,3.90
2023-09-06T23:12:17.787Z,3.92
2023-09-06T23:14:48.431Z,4.45
2023-09-06T23:17:23.981Z,4.30
2023-09-06T23:19:55.596Z,4.35
2023-09-06T23:22:25.167Z,4.53
2023-09-06T23:24:57.636Z,4.00
2023-09-06T23:27:27.148Z,4.68
2023-09-06T23:30:02.736Z,4.70
2023-09-06T23:32:32.667Z,4.22
2023-09-06T23:35:00.578Z,5.28
2023-09-06T23:37:29.598Z,4.85
2023-09-06T23:40:01.926Z,4.65
2023-09-06T23:42:31.324Z,5.45
2023-09-06T23:44:58.921Z,4.70
2023-09-06T23:47:27.378Z,4.85
2023-09-06T23:49:54.893Z,4.47
2023-09-06T23:52:23.772Z,4.97
2023-09-06T23:54:51.375Z,4.40
2023-09-06T23:57:19.273Z,4.45
2023-09-06T23:59:47.826Z,4.78
